sensor_id;sensor_type;location;lat;lon;timestamp;P1;durP1;ratioP1;P2;durP2;ratioP2
7239;SDS011;3661;53.288;10.458;2022-11-10T00:01:51;17.20;;;16.60;;
7239;SDS011;3661;53.288;10.458;2022-11-10T00:04:23;12.88;;;12.27;;
7239;SDS011;3661;53.288;10.458;2022-11-10T00:06:57;16.10;;;15.35;;
7239;SDS011;3661;53.288;10.458;2022-11-10T00:09:35;13.55;;;12.88;;
7239;SDS011;3661;53.288;10.458;2022-11-10T00:12:07;20.30;;;19.75;;
7239;SDS011;3661;53.288;10.458;2022-11-10T00:14:40;14.35;;;13.85;;
7239;SDS011;3661;53.288;10.458;2022-11-10T00:17:29;18.33;;;17.63;;
7239;SDS011;3661;53.288;10.458;2022-11-10T00:20:02;17.47;;;16.77;;
7239;SDS011;3661;53.288;10.458;2022-11-10T00:22:39;16.15;;;15.43;;
7239;SDS011;3661;53.288;10.458;2022-11-10T00:25:13;16.27;;;15.68;;
7239;SDS011;3661;53.288;10.458;2022-11-10T00:27:45;18.80;;;18.00;;
7239;SDS011;3661;53.288;10.458;2022-11-10T00:30:19;18.95;;;18.27;;
7239;SDS011;3661;53.288;10.458;2022-11-10T00:32:52;15.55;;;15.00;;
7239;SDS011;3661;53.288;10.458;2022-11-10T00:35:24;13.73;;;13.18;;
7239;SDS011;3661;53.288;10.458;2022-11-10T00:37:56;15.07;;;14.57;;
7239;SDS011;3661;53.288;10.458;2022-11-10T00:40:31;21.13;;;20.37;;
7239;SDS011;3661;53.288;10.458;2022-11-10T00:43:03;19.48;;;18.80;;
7239;SDS011;3661;53.288;10.458;2022-11-10T00:45:35;16.37;;;15.70;;
7239;SDS011;3661;53.288;10.458;2022-11-10T00:48:07;17.55;;;17.02;;
7239;SDS011;3661;53.288;10.458;2022-11-10T00:50:41;14.60;;;13.90;;
7239;SDS011;3661;53.288;10.458;2022-11-10T00:53:13;11.65;;;11.00;;
7239;SDS011;3661;53.288;10.458;2022-11-10T00:55:47;11.98;;;11.13;;
7239;SDS011;3661;53.288;10.458;2022-11-10T00:58:19;13.57;;;12.87;;
7239;SDS011;3661;53.288;10.458;2022-11-10T01:00:58;12.60;;;11.98;;
7239;SDS011;3661;53.288;10.458;2022-11-10T01:03:31;10.85;;;10.38;;
7239;SDS011;3661;53.288;10.458;2022-11-10T01:06:04;10.38;;;9.80;;
7239;SDS011;3661;53.288;10.458;2022-11-10T01:08:37;15.52;;;14.93;;
7239;SDS011;3661;53.288;10.458;2022-11-10T01:11:13;14.90;;;14.35;;
7239;SDS011;3661;53.288;10.458;2022-11-10T01:13:50;13.77;;;13.18;;
7239;SDS011;3661;53.288;10.458;2022-11-10T01:16:23;16.05;;;15.32;;
7239;SDS011;3661;53.288;10.458;2022-11-10T01:18:58;14.23;;;13.27;;
7239;SDS011;3661;53.288;10.458;2022-11-10T01:21:33;11.93;;;11.33;;
7239;SDS011;3661;53.288;10.458;2022-11-10T01:24:06;11.50;;;10.90;;
7239;SDS011;3661;53.288;10.458;2022-11-10T01:26:43;13.27;;;12.60;;
7239;SDS011;3661;53.288;10.458;2022-11-10T01:29:19;10.98;;;10.52;;
7239;SDS011;3661;53.288;10.458;2022-11-10T01:31:51;11.82;;;11.30;;
7239;SDS011;3661;53.288;10.458;2022-11-10T01:34:24;14.63;;;14.02;;
7239;SDS011;3661;53.288;10.458;2022-11-10T01:36:58;11.93;;;11.32;;
7239;SDS011;3661;53.288;10.458;2022-11-10T01:39:30;13.35;;;12.82;;
7239;SDS011;3661;53.288;10.458;2022-11-10T01:42:04;12.52;;;11.93;;
7239;SDS011;3661;53.288;10.458;2022-11-10T01:44:36;12.52;;;12.07;;
7239;SDS011;3661;53.288;10.458;2022-11-10T01:47:13;12.07;;;11.38;;
7239;SDS011;3661;53.288;10.458;2022-11-10T01:49:48;15.15;;;14.45;;
7239;SDS011;3661;53.288;10.458;2022-11-10T01:52:25;17.10;;;16.20;;
7239;SDS011;3661;53.288;10.458;2022-11-10T01:55:02;15.10;;;14.40;;
7239;SDS011;3661;53.288;10.458;2022-11-10T01:57:36;15.60;;;15.02;;
7239;SDS011;3661;53.288;10.458;2022-11-10T02:00:10;13.38;;;12.57;;
7239;SDS011;3661;53.288;10.458;2022-11-10T02:02:45;10.55;;;9.93;;
7239;SDS011;3661;53.288;10.458;2022-11-10T02:05:21;11.15;;;10.65;;
7239;SDS011;3661;53.288;10.458;2022-11-10T02:07:56;12.27;;;11.60;;
7239;SDS011;3661;53.288;10.458;2022-11-10T02:10:29;16.77;;;16.02;;
7239;SDS011;3661;53.288;10.458;2022-11-10T02:13:06;12.70;;;12.07;;
7239;SDS011;3661;53.288;10.458;2022-11-10T02:15:38;11.15;;;10.45;;
7239;SDS011;3661;53.288;10.458;2022-11-10T02:18:10;15.07;;;14.23;;
7239;SDS011;3661;53.288;10.458;2022-11-10T02:20:45;11.15;;;10.55;;
7239;SDS011;3661;53.288;10.458;2022-11-10T02:26:15;17.52;;;16.65;;
7239;SDS011;3661;53.288;10.458;2022-11-10T02:28:50;13.70;;;13.02;;
7239;SDS011;3661;53.288;10.458;2022-11-10T02:31:23;16.88;;;16.08;;
7239;SDS011;3661;53.288;10.458;2022-11-10T02:33:56;17.38;;;16.48;;
7239;SDS011;3661;53.288;10.458;2022-11-10T02:36:29;17.23;;;16.20;;
7239;SDS011;3661;53.288;10.458;2022-11-10T02:39:02;12.20;;;11.27;;
7239;SDS011;3661;53.288;10.458;2022-11-10T02:41:34;14.35;;;13.43;;
7239;SDS011;3661;53.288;10.458;2022-11-10T02:44:07;13.10;;;12.38;;
7239;SDS011;3661;53.288;10.458;2022-11-10T02:46:39;14.43;;;13.65;;
7239;SDS011;3661;53.288;10.458;2022-11-10T02:49:11;15.18;;;13.93;;
7239;SDS011;3661;53.288;10.458;2022-11-10T02:51:45;13.13;;;12.43;;
7239;SDS011;3661;53.288;10.458;2022-11-10T02:54:17;14.40;;;13.50;;
7239;SDS011;3661;53.288;10.458;2022-11-10T02:56:52;16.35;;;15.50;;
7239;SDS011;3661;53.288;10.458;2022-11-10T02:59:24;14.65;;;13.90;;
7239;SDS011;3661;53.288;10.458;2022-11-10T03:01:56;14.70;;;13.80;;
7239;SDS011;3661;53.288;10.458;2022-11-10T03:04:28;14.73;;;13.82;;
7239;SDS011;3661;53.288;10.458;2022-11-10T03:07:02;14.20;;;13.60;;
7239;SDS011;3661;53.288;10.458;2022-11-10T03:09:34;13.70;;;12.90;;
7239;SDS011;3661;53.288;10.458;2022-11-10T03:12:06;15.43;;;14.52;;
7239;SDS011;3661;53.288;10.458;2022-11-10T03:14:38;15.10;;;14.10;;
7239;SDS011;3661;53.288;10.458;2022-11-10T03:17:10;16.20;;;15.02;;
7239;SDS011;3661;53.288;10.458;2022-11-10T03:19:42;18.42;;;17.60;;
7239;SDS011;3661;53.288;10.458;2022-11-10T03:22:16;13.70;;;12.60;;
7239;SDS011;3661;53.288;10.458;2022-11-10T03:24:48;15.05;;;14.25;;
7239;SDS011;3661;53.288;10.458;2022-11-10T03:27:20;14.65;;;13.75;;
7239;SDS011;3661;53.288;10.458;2022-11-10T03:29:52;14.77;;;14.17;;
7239;SDS011;3661;53.288;10.458;2022-11-10T03:32:26;16.63;;;15.60;;
7239;SDS011;3661;53.288;10.458;2022-11-10T03:34:58;13.95;;;13.35;;
7239;SDS011;3661;53.288;10.458;2022-11-10T03:37:32;14.02;;;13.23;;
7239;SDS011;3661;53.288;10.458;2022-11-10T03:40:04;13.68;;;12.85;;
7239;SDS011;3661;53.288;10.458;2022-11-10T03:42:40;16.73;;;15.70;;
7239;SDS011;3661;53.288;10.458;2022-11-10T03:45:13;15.48;;;14.57;;
7239;SDS011;3661;53.288;10.458;2022-11-10T03:47:46;13.20;;;12.40;;
7239;SDS011;3661;53.288;10.458;2022-11-10T03:50:19;16.25;;;15.25;;
7239;SDS011;3661;53.288;10.458;2022-11-10T03:52:52;13.38;;;12.48;;
7239;SDS011;3661;53.288;10.458;2022-11-10T03:55:25;16.25;;;15.13;;
7239;SDS011;3661;53.288;10.458;2022-11-10T03:57:59;15.77;;;15.07;;
7239;SDS011;3661;53.288;10.458;2022-11-10T04:00:32;13.13;;;12.52;;
7239;SDS011;3661;53.288;10.458;2022-11-10T04:03:05;15.20;;;14.27;;
7239;SDS011;3661;53.288;10.458;2022-11-10T04:05:37;13.73;;;13.00;;
7239;SDS011;3661;53.288;10.458;2022-11-10T04:08:28;15.87;;;14.93;;
7239;SDS011;3661;53.288;10.458;2022-11-10T04:11:17;18.00;;;16.95;;
7239;SDS011;3661;53.288;10.458;2022-11-10T04:14:04;15.30;;;14.50;;
7239;SDS011;3661;53.288;10.458;2022-11-10T04:16:54;16.58;;;15.52;;
7239;SDS011;3661;53.288;10.458;2022-11-10T04:19:26;17.17;;;16.27;;
7239;SDS011;3661;53.288;10.458;2022-11-10T04:21:58;15.27;;;14.25;;
7239;SDS011;3661;53.288;10.458;2022-11-10T04:24:32;16.55;;;15.45;;
7239;SDS011;3661;53.288;10.458;2022-11-10T04:27:04;14.93;;;14.15;;
7239;SDS011;3661;53.288;10.458;2022-11-10T04:29:36;15.27;;;14.37;;
7239;SDS011;3661;53.288;10.458;2022-11-10T04:32:09;20.25;;;19.17;;
7239;SDS011;3661;53.288;10.458;2022-11-10T04:34:41;13.20;;;12.60;;
7239;SDS011;3661;53.288;10.458;2022-11-10T04:37:13;17.15;;;16.25;;
7239;SDS011;3661;53.288;10.458;2022-11-10T04:39:46;14.63;;;13.77;;
7239;SDS011;3661;53.288;10.458;2022-11-10T04:42:18;13.27;;;12.45;;
7239;SDS011;3661;53.288;10.458;2022-11-10T04:44:51;15.57;;;14.50;;
7239;SDS011;3661;53.288;10.458;2022-11-10T04:47:23;16.67;;;15.88;;
7239;SDS011;3661;53.288;10.458;2022-11-10T04:49:55;15.57;;;14.77;;
7239;SDS011;3661;53.288;10.458;2022-11-10T04:52:27;16.48;;;15.38;;
7239;SDS011;3661;53.288;10.458;2022-11-10T04:55:01;14.75;;;13.95;;
7239;SDS011;3661;53.288;10.458;2022-11-10T04:57:33;15.10;;;14.30;;
7239;SDS011;3661;53.288;10.458;2022-11-10T05:00:06;19.17;;;18.08;;
7239;SDS011;3661;53.288;10.458;2022-11-10T05:02:39;23.35;;;22.25;;
7239;SDS011;3661;53.288;10.458;2022-11-10T05:05:14;13.53;;;12.73;;
7239;SDS011;3661;53.288;10.458;2022-11-10T05:07:46;17.45;;;16.48;;
7239;SDS011;3661;53.288;10.458;2022-11-10T05:10:20;15.95;;;15.13;;
7239;SDS011;3661;53.288;10.458;2022-11-10T05:12:55;18.43;;;17.30;;
7239;SDS011;3661;53.288;10.458;2022-11-10T05:15:27;16.10;;;15.27;;
7239;SDS011;3661;53.288;10.458;2022-11-10T05:17:59;16.77;;;15.77;;
7239;SDS011;3661;53.288;10.458;2022-11-10T05:20:33;18.23;;;17.15;;
7239;SDS011;3661;53.288;10.458;2022-11-10T05:23:06;15.50;;;14.52;;
7239;SDS011;3661;53.288;10.458;2022-11-10T05:25:57;20.60;;;19.55;;
7239;SDS011;3661;53.288;10.458;2022-11-10T05:28:29;16.30;;;15.20;;
7239;SDS011;3661;53.288;10.458;2022-11-10T05:31:01;15.45;;;14.45;;
7239;SDS011;3661;53.288;10.458;2022-11-10T05:33:34;16.63;;;15.82;;
7239;SDS011;3661;53.288;10.458;2022-11-10T05:36:07;15.65;;;14.85;;
7239;SDS011;3661;53.288;10.458;2022-11-10T05:38:41;18.67;;;17.88;;
7239;SDS011;3661;53.288;10.458;2022-11-10T05:41:14;18.50;;;17.10;;
7239;SDS011;3661;53.288;10.458;2022-11-10T05:43:47;16.92;;;15.93;;
7239;SDS011;3661;53.288;10.458;2022-11-10T05:46:19;15.32;;;14.30;;
7239;SDS011;3661;53.288;10.458;2022-11-10T05:48:52;19.02;;;17.90;;
7239;SDS011;3661;53.288;10.458;2022-11-10T05:51:24;18.48;;;17.38;;
7239;SDS011;3661;53.288;10.458;2022-11-10T05:53:56;24.40;;;23.27;;
7239;SDS011;3661;53.288;10.458;2022-11-10T05:56:30;17.42;;;16.52;;
7239;SDS011;3661;53.288;10.458;2022-11-10T05:59:02;17.70;;;16.75;;
7239;SDS011;3661;53.288;10.458;2022-11-10T06:01:34;21.45;;;20.42;;
7239;SDS011;3661;53.288;10.458;2022-11-10T06:04:09;15.23;;;14.05;;
7239;SDS011;3661;53.288;10.458;2022-11-10T06:06:41;14.73;;;13.93;;
7239;SDS011;3661;53.288;10.458;2022-11-10T06:09:13;14.60;;;13.82;;
7239;SDS011;3661;53.288;10.458;2022-11-10T06:11:47;15.30;;;14.40;;
7239;SDS011;3661;53.288;10.458;2022-11-10T06:14:19;16.13;;;15.07;;
7239;SDS011;3661;53.288;10.458;2022-11-10T06:16:51;14.05;;;13.15;;
7239;SDS011;3661;53.288;10.458;2022-11-10T06:19:23;17.80;;;16.83;;
7239;SDS011;3661;53.288;10.458;2022-11-10T06:21:55;17.02;;;16.02;;
7239;SDS011;3661;53.288;10.458;2022-11-10T06:24:28;15.82;;;14.63;;
7239;SDS011;3661;53.288;10.458;2022-11-10T06:27:01;17.27;;;16.23;;
7239;SDS011;3661;53.288;10.458;2022-11-10T06:29:34;16.95;;;15.98;;
7239;SDS011;3661;53.288;10.458;2022-11-10T06:32:08;20.88;;;19.67;;
7239;SDS011;3661;53.288;10.458;2022-11-10T06:34:41;19.63;;;18.73;;
7239;SDS011;3661;53.288;10.458;2022-11-10T06:37:13;24.23;;;23.17;;
7239;SDS011;3661;53.288;10.458;2022-11-10T06:39:46;17.40;;;16.10;;
7239;SDS011;3661;53.288;10.458;2022-11-10T06:42:20;20.90;;;20.00;;
7239;SDS011;3661;53.288;10.458;2022-11-10T06:44:52;17.20;;;16.20;;
7239;SDS011;3661;53.288;10.458;2022-11-10T06:47:24;16.75;;;15.63;;
7239;SDS011;3661;53.288;10.458;2022-11-10T06:49:56;20.58;;;19.63;;
7239;SDS011;3661;53.288;10.458;2022-11-10T06:52:28;18.45;;;17.38;;
7239;SDS011;3661;53.288;10.458;2022-11-10T06:55:01;15.93;;;15.13;;
7239;SDS011;3661;53.288;10.458;2022-11-10T06:57:37;17.50;;;16.52;;
7239;SDS011;3661;53.288;10.458;2022-11-10T07:00:11;18.77;;;17.67;;
7239;SDS011;3661;53.288;10.458;2022-11-10T07:02:44;18.05;;;17.08;;
7239;SDS011;3661;53.288;10.458;2022-11-10T07:05:16;18.17;;;17.08;;
7239;SDS011;3661;53.288;10.458;2022-11-10T07:07:49;19.20;;;17.90;;
7239;SDS011;3661;53.288;10.458;2022-11-10T07:10:21;22.27;;;21.23;;
7239;SDS011;3661;53.288;10.458;2022-11-10T07:12:58;17.55;;;16.42;;
7239;SDS011;3661;53.288;10.458;2022-11-10T07:15:31;16.02;;;15.05;;
7239;SDS011;3661;53.288;10.458;2022-11-10T07:18:04;20.48;;;19.27;;
7239;SDS011;3661;53.288;10.458;2022-11-10T07:20:36;18.47;;;17.57;;
7239;SDS011;3661;53.288;10.458;2022-11-10T07:23:11;18.52;;;17.63;;
7239;SDS011;3661;53.288;10.458;2022-11-10T07:25:44;17.50;;;16.50;;
7239;SDS011;3661;53.288;10.458;2022-11-10T07:28:18;21.05;;;19.83;;
7239;SDS011;3661;53.288;10.458;2022-11-10T07:30:51;16.33;;;15.23;;
7239;SDS011;3661;53.288;10.458;2022-11-10T07:33:24;19.40;;;18.45;;
7239;SDS011;3661;53.288;10.458;2022-11-10T07:35:57;19.33;;;18.33;;
7239;SDS011;3661;53.288;10.458;2022-11-10T07:41:04;17.53;;;16.57;;
7239;SDS011;3661;53.288;10.458;2022-11-10T07:43:39;25.73;;;24.42;;
7239;SDS011;3661;53.288;10.458;2022-11-10T07:46:13;20.03;;;19.03;;
7239;SDS011;3661;53.288;10.458;2022-11-10T07:48:46;18.17;;;17.00;;
7239;SDS011;3661;53.288;10.458;2022-11-10T07:51:18;18.23;;;17.33;;
7239;SDS011;3661;53.288;10.458;2022-11-10T07:53:51;19.70;;;18.55;;
7239;SDS011;3661;53.288;10.458;2022-11-10T07:56:23;20.77;;;19.75;;
7239;SDS011;3661;53.288;10.458;2022-11-10T07:58:57;17.55;;;16.63;;
7239;SDS011;3661;53.288;10.458;2022-11-10T08:01:29;18.23;;;16.98;;
7239;SDS011;3661;53.288;10.458;2022-11-10T08:04:03;19.20;;;18.17;;
7239;SDS011;3661;53.288;10.458;2022-11-10T08:06:36;18.63;;;17.73;;
7239;SDS011;3661;53.288;10.458;2022-11-10T08:09:09;17.60;;;16.65;;
7239;SDS011;3661;53.288;10.458;2022-11-10T08:11:41;17.83;;;16.70;;
7239;SDS011;3661;53.288;10.458;2022-11-10T08:14:15;24.60;;;23.15;;
7239;SDS011;3661;53.288;10.458;2022-11-10T08:16:47;22.60;;;21.27;;
7239;SDS011;3661;53.288;10.458;2022-11-10T08:19:19;24.55;;;23.35;;
7239;SDS011;3661;53.288;10.458;2022-11-10T08:21:51;27.48;;;26.23;;
7239;SDS011;3661;53.288;10.458;2022-11-10T08:24:24;23.75;;;22.35;;
7239;SDS011;3661;53.288;10.458;2022-11-10T08:26:56;23.38;;;21.90;;
7239;SDS011;3661;53.288;10.458;2022-11-10T08:29:29;27.05;;;25.73;;
7239;SDS011;3661;53.288;10.458;2022-11-10T08:32:02;24.45;;;23.13;;
7239;SDS011;3661;53.288;10.458;2022-11-10T08:34:34;21.45;;;20.25;;
7239;SDS011;3661;53.288;10.458;2022-11-10T08:37:07;24.05;;;22.65;;
7239;SDS011;3661;53.288;10.458;2022-11-10T08:39:39;29.33;;;27.83;;
7239;SDS011;3661;53.288;10.458;2022-11-10T08:42:11;21.48;;;20.00;;
7239;SDS011;3661;53.288;10.458;2022-11-10T08:44:47;23.02;;;21.30;;
7239;SDS011;3661;53.288;10.458;2022-11-10T08:47:19;21.67;;;20.02;;
7239;SDS011;3661;53.288;10.458;2022-11-10T08:49:51;21.77;;;20.17;;
7239;SDS011;3661;53.288;10.458;2022-11-10T08:52:23;22.05;;;20.65;;
7239;SDS011;3661;53.288;10.458;2022-11-10T08:54:55;22.25;;;20.55;;
7239;SDS011;3661;53.288;10.458;2022-11-10T08:57:27;23.10;;;21.77;;
7239;SDS011;3661;53.288;10.458;2022-11-10T09:00:01;19.63;;;18.42;;
7239;SDS011;3661;53.288;10.458;2022-11-10T09:02:34;24.17;;;22.63;;
7239;SDS011;3661;53.288;10.458;2022-11-10T09:05:06;21.33;;;19.98;;
7239;SDS011;3661;53.288;10.458;2022-11-10T09:07:42;22.00;;;20.65;;
7239;SDS011;3661;53.288;10.458;2022-11-10T09:10:15;24.25;;;22.65;;
7239;SDS011;3661;53.288;10.458;2022-11-10T09:13:00;24.38;;;22.88;;
7239;SDS011;3661;53.288;10.458;2022-11-10T09:15:37;24.45;;;23.02;;
7239;SDS011;3661;53.288;10.458;2022-11-10T09:18:11;27.38;;;25.65;;
7239;SDS011;3661;53.288;10.458;2022-11-10T09:20:44;20.98;;;19.73;;
7239;SDS011;3661;53.288;10.458;2022-11-10T09:23:17;20.83;;;19.63;;
7239;SDS011;3661;53.288;10.458;2022-11-10T09:25:50;21.52;;;20.25;;
7239;SDS011;3661;53.288;10.458;2022-11-10T09:28:24;20.05;;;18.75;;
7239;SDS011;3661;53.288;10.458;2022-11-10T09:30:58;25.48;;;24.27;;
7239;SDS011;3661;53.288;10.458;2022-11-10T09:33:31;24.08;;;22.83;;
7239;SDS011;3661;53.288;10.458;2022-11-10T09:36:04;21.52;;;20.00;;
7239;SDS011;3661;53.288;10.458;2022-11-10T09:38:36;22.73;;;21.35;;
7239;SDS011;3661;53.288;10.458;2022-11-10T09:41:10;24.67;;;22.67;;
7239;SDS011;3661;53.288;10.458;2022-11-10T09:43:55;25.65;;;24.15;;
7239;SDS011;3661;53.288;10.458;2022-11-10T09:46:36;28.27;;;26.58;;
7239;SDS011;3661;53.288;10.458;2022-11-10T09:49:16;29.10;;;27.45;;
7239;SDS011;3661;53.288;10.458;2022-11-10T09:51:59;28.08;;;26.38;;
7239;SDS011;3661;53.288;10.458;2022-11-10T09:54:34;27.13;;;25.63;;
7239;SDS011;3661;53.288;10.458;2022-11-10T09:57:11;21.73;;;20.13;;
7239;SDS011;3661;53.288;10.458;2022-11-10T09:59:46;21.80;;;20.40;;
7239;SDS011;3661;53.288;10.458;2022-11-10T10:02:21;29.27;;;27.75;;
7239;SDS011;3661;53.288;10.458;2022-11-10T10:05:04;24.67;;;23.40;;
7239;SDS011;3661;53.288;10.458;2022-11-10T10:07:54;26.50;;;24.90;;
7239;SDS011;3661;53.288;10.458;2022-11-10T10:10:39;22.98;;;21.60;;
7239;SDS011;3661;53.288;10.458;2022-11-10T10:13:24;30.23;;;28.65;;
7239;SDS011;3661;53.288;10.458;2022-11-10T10:16:11;31.75;;;30.25;;
7239;SDS011;3661;53.288;10.458;2022-11-10T10:18:53;26.40;;;25.00;;
7239;SDS011;3661;53.288;10.458;2022-11-10T10:21:41;22.13;;;20.60;;
7239;SDS011;3661;53.288;10.458;2022-11-10T10:24:24;26.95;;;25.05;;
7239;SDS011;3661;53.288;10.458;2022-11-10T10:26:59;23.70;;;22.07;;
7239;SDS011;3661;53.288;10.458;2022-11-10T10:29:36;22.83;;;21.55;;
7239;SDS011;3661;53.288;10.458;2022-11-10T10:32:17;24.00;;;21.98;;
7239;SDS011;3661;53.288;10.458;2022-11-10T10:34:53;25.95;;;24.42;;
7239;SDS011;3661;53.288;10.458;2022-11-10T10:37:29;24.02;;;22.52;;
7239;SDS011;3661;53.288;10.458;2022-11-10T10:40:18;23.25;;;21.83;;
7239;SDS011;3661;53.288;10.458;2022-11-10T10:42:51;25.15;;;23.58;;
7239;SDS011;3661;53.288;10.458;2022-11-10T10:45:25;22.35;;;21.13;;
7239;SDS011;3661;53.288;10.458;2022-11-10T10:48:00;22.48;;;21.35;;
7239;SDS011;3661;53.288;10.458;2022-11-10T10:50:34;29.02;;;27.55;;
7239;SDS011;3661;53.288;10.458;2022-11-10T10:53:13;21.05;;;19.75;;
7239;SDS011;3661;53.288;10.458;2022-11-10T10:55:56;20.27;;;18.88;;
7239;SDS011;3661;53.288;10.458;2022-11-10T10:58:34;29.80;;;28.42;;
7239;SDS011;3661;53.288;10.458;2022-11-10T11:01:28;21.80;;;20.70;;
7239;SDS011;3661;53.288;10.458;2022-11-10T11:04:24;20.02;;;18.88;;
7239;SDS011;3661;53.288;10.458;2022-11-10T11:07:00;24.55;;;23.38;;
7239;SDS011;3661;53.288;10.458;2022-11-10T11:09:38;25.10;;;23.60;;
7239;SDS011;3661;53.288;10.458;2022-11-10T11:12:25;21.90;;;20.63;;
7239;SDS011;3661;53.288;10.458;2022-11-10T11:15:12;29.10;;;27.90;;
7239;SDS011;3661;53.288;10.458;2022-11-10T11:17:57;24.70;;;23.48;;
7239;SDS011;3661;53.288;10.458;2022-11-10T11:20:33;27.98;;;26.80;;
7239;SDS011;3661;53.288;10.458;2022-11-10T11:23:26;26.52;;;25.13;;
7239;SDS011;3661;53.288;10.458;2022-11-10T11:26:16;31.30;;;29.90;;
7239;SDS011;3661;53.288;10.458;2022-11-10T11:28:53;27.67;;;26.42;;
7239;SDS011;3661;53.288;10.458;2022-11-10T11:31:35;23.42;;;21.58;;
7239;SDS011;3661;53.288;10.458;2022-11-10T11:34:16;25.95;;;24.77;;
7239;SDS011;3661;53.288;10.458;2022-11-10T11:36:53;22.38;;;21.08;;
7239;SDS011;3661;53.288;10.458;2022-11-10T11:39:37;29.70;;;28.30;;
7239;SDS011;3661;53.288;10.458;2022-11-10T11:42:22;25.65;;;24.25;;
7239;SDS011;3661;53.288;10.458;2022-11-10T11:45:06;24.50;;;23.30;;
7239;SDS011;3661;53.288;10.458;2022-11-10T11:47:51;30.43;;;29.03;;
7239;SDS011;3661;53.288;10.458;2022-11-10T11:50:44;31.27;;;29.83;;
7239;SDS011;3661;53.288;10.458;2022-11-10T11:53:26;26.52;;;25.25;;
7239;SDS011;3661;53.288;10.458;2022-11-10T11:56:13;29.48;;;27.98;;
7239;SDS011;3661;53.288;10.458;2022-11-10T11:58:54;27.13;;;25.92;;
7239;SDS011;3661;53.288;10.458;2022-11-10T12:01:38;30.00;;;28.40;;
7239;SDS011;3661;53.288;10.458;2022-11-10T12:04:23;24.88;;;23.58;;
7239;SDS011;3661;53.288;10.458;2022-11-10T12:07:18;25.25;;;23.67;;
7239;SDS011;3661;53.288;10.458;2022-11-10T12:10:09;28.83;;;27.27;;
7239;SDS011;3661;53.288;10.458;2022-11-10T12:15:43;24.08;;;22.80;;
7239;SDS011;3661;53.288;10.458;2022-11-10T12:18:26;25.60;;;24.50;;
7239;SDS011;3661;53.288;10.458;2022-11-10T12:21:06;29.80;;;28.33;;
7239;SDS011;3661;53.288;10.458;2022-11-10T12:23:57;18.93;;;17.80;;
7239;SDS011;3661;53.288;10.458;2022-11-10T12:26:46;25.63;;;24.25;;
7239;SDS011;3661;53.288;10.458;2022-11-10T12:29:28;28.90;;;27.42;;
7239;SDS011;3661;53.288;10.458;2022-11-10T12:32:05;31.70;;;30.40;;
7239;SDS011;3661;53.288;10.458;2022-11-10T12:34:45;27.30;;;26.15;;
7239;SDS011;3661;53.288;10.458;2022-11-10T12:37:23;31.77;;;30.17;;
7239;SDS011;3661;53.288;10.458;2022-11-10T12:40:00;32.40;;;30.90;;
7239;SDS011;3661;53.288;10.458;2022-11-10T12:42:36;28.85;;;27.55;;
7239;SDS011;3661;53.288;10.458;2022-11-10T12:45:15;33.97;;;32.08;;
7239;SDS011;3661;53.288;10.458;2022-11-10T12:47:50;29.58;;;27.95;;
7239;SDS011;3661;53.288;10.458;2022-11-10T12:50:26;25.23;;;23.75;;
7239;SDS011;3661;53.288;10.458;2022-11-10T12:53:12;24.50;;;23.02;;
7239;SDS011;3661;53.288;10.458;2022-11-10T12:55:50;32.17;;;30.67;;
7239;SDS011;3661;53.288;10.458;2022-11-10T12:58:26;28.58;;;27.05;;
7239;SDS011;3661;53.288;10.458;2022-11-10T13:01:02;22.90;;;22.00;;
7239;SDS011;3661;53.288;10.458;2022-11-10T13:03:36;30.95;;;29.70;;
7239;SDS011;3661;53.288;10.458;2022-11-10T13:06:21;33.47;;;31.67;;
7239;SDS011;3661;53.288;10.458;2022-11-10T13:08:56;29.13;;;27.52;;
7239;SDS011;3661;53.288;10.458;2022-11-10T13:11:29;29.25;;;27.98;;
7239;SDS011;3661;53.288;10.458;2022-11-10T13:14:10;29.23;;;27.83;;
7239;SDS011;3661;53.288;10.458;2022-11-10T13:16:52;22.77;;;21.55;;
7239;SDS011;3661;53.288;10.458;2022-11-10T13:22:28;25.35;;;24.27;;
7239;SDS011;3661;53.288;10.458;2022-11-10T13:28:14;28.10;;;26.63;;
7239;SDS011;3661;53.288;10.458;2022-11-10T13:34:27;20.23;;;19.13;;
7239;SDS011;3661;53.288;10.458;2022-11-10T13:37:02;21.77;;;20.40;;
7239;SDS011;3661;53.288;10.458;2022-11-10T13:39:51;25.17;;;24.10;;
7239;SDS011;3661;53.288;10.458;2022-11-10T13:42:23;18.80;;;17.77;;
7239;SDS011;3661;53.288;10.458;2022-11-10T13:44:56;25.05;;;24.17;;
7239;SDS011;3661;53.288;10.458;2022-11-10T13:48:11;27.30;;;26.20;;
7239;SDS011;3661;53.288;10.458;2022-11-10T13:50:59;20.02;;;18.92;;
7239;SDS011;3661;53.288;10.458;2022-11-10T13:53:41;23.65;;;22.45;;
7239;SDS011;3661;53.288;10.458;2022-11-10T13:56:25;19.60;;;18.33;;
7239;SDS011;3661;53.288;10.458;2022-11-10T13:59:14;16.63;;;15.75;;
7239;SDS011;3661;53.288;10.458;2022-11-10T14:01:49;22.02;;;20.83;;
7239;SDS011;3661;53.288;10.458;2022-11-10T14:04:39;16.88;;;16.08;;
7239;SDS011;3661;53.288;10.458;2022-11-10T14:07:14;24.48;;;23.27;;
7239;SDS011;3661;53.288;10.458;2022-11-10T14:09:49;16.60;;;15.90;;
7239;SDS011;3661;53.288;10.458;2022-11-10T14:12:24;25.10;;;23.73;;
7239;SDS011;3661;53.288;10.458;2022-11-10T14:15:02;15.45;;;14.70;;
7239;SDS011;3661;53.288;10.458;2022-11-10T14:17:39;15.57;;;14.45;;
7239;SDS011;3661;53.288;10.458;2022-11-10T14:20:21;20.02;;;19.13;;
7239;SDS011;3661;53.288;10.458;2022-11-10T14:22:56;17.05;;;15.85;;
7239;SDS011;3661;53.288;10.458;2022-11-10T14:25:36;24.38;;;22.98;;
7239;SDS011;3661;53.288;10.458;2022-11-10T14:28:22;18.77;;;17.88;;
7239;SDS011;3661;53.288;10.458;2022-11-10T14:30:58;26.00;;;24.73;;
7239;SDS011;3661;53.288;10.458;2022-11-10T14:33:30;26.77;;;25.38;;
7239;SDS011;3661;53.288;10.458;2022-11-10T14:36:05;24.10;;;22.97;;
7239;SDS011;3661;53.288;10.458;2022-11-10T14:38:41;21.33;;;19.85;;
7239;SDS011;3661;53.288;10.458;2022-11-10T14:41:15;24.58;;;23.48;;
7239;SDS011;3661;53.288;10.458;2022-11-10T14:43:59;18.20;;;17.35;;
7239;SDS011;3661;53.288;10.458;2022-11-10T14:46:32;23.60;;;22.63;;
7239;SDS011;3661;53.288;10.458;2022-11-10T14:49:05;26.10;;;24.83;;
7239;SDS011;3661;53.288;10.458;2022-11-10T14:51:42;20.85;;;19.55;;
7239;SDS011;3661;53.288;10.458;2022-11-10T14:54:15;26.00;;;25.00;;
7239;SDS011;3661;53.288;10.458;2022-11-10T14:56:53;24.65;;;23.45;;
7239;SDS011;3661;53.288;10.458;2022-11-10T14:59:26;21.40;;;20.40;;
7239;SDS011;3661;53.288;10.458;2022-11-10T15:02:08;21.60;;;20.52;;
7239;SDS011;3661;53.288;10.458;2022-11-10T15:05:00;18.63;;;17.52;;
7239;SDS011;3661;53.288;10.458;2022-11-10T15:07:35;25.05;;;23.80;;
7239;SDS011;3661;53.288;10.458;2022-11-10T15:10:12;17.30;;;16.50;;
7239;SDS011;3661;53.288;10.458;2022-11-10T15:12:58;24.50;;;23.52;;
7239;SDS011;3661;53.288;10.458;2022-11-10T15:15:31;27.65;;;26.45;;
7239;SDS011;3661;53.288;10.458;2022-11-10T15:18:04;23.60;;;22.52;;
7239;SDS011;3661;53.288;10.458;2022-11-10T15:20:37;21.23;;;20.42;;
7239;SDS011;3661;53.288;10.458;2022-11-10T15:23:17;24.87;;;23.77;;
7239;SDS011;3661;53.288;10.458;2022-11-10T15:25:52;27.75;;;26.48;;
7239;SDS011;3661;53.288;10.458;2022-11-10T15:28:26;21.83;;;20.95;;
7239;SDS011;3661;53.288;10.458;2022-11-10T15:31:00;27.45;;;26.25;;
7239;SDS011;3661;53.288;10.458;2022-11-10T15:33:35;28.08;;;26.98;;
7239;SDS011;3661;53.288;10.458;2022-11-10T15:36:12;24.70;;;23.30;;
7239;SDS011;3661;53.288;10.458;2022-11-10T15:39:00;23.17;;;22.02;;
7239;SDS011;3661;53.288;10.458;2022-11-10T15:41:35;26.33;;;25.08;;
7239;SDS011;3661;53.288;10.458;2022-11-10T15:44:15;21.00;;;19.80;;
7239;SDS011;3661;53.288;10.458;2022-11-10T15:46:50;27.93;;;26.47;;